createdAt,value
2018-09-06T00:01:10.300Z,14.62
2018-09-06T00:03:38.629Z,14.50
2018-09-06T00:06:07.075Z,14.35
2018-09-06T00:08:35.374Z,14.40
2018-09-06T00:11:03.738Z,14.40
2018-09-06T00:13:31.997Z,14.33
2018-09-06T00:16:00.297Z,14.21
2018-09-06T00:18:28.637Z,14.14
2018-09-06T00:20:56.898Z,14.22
2018-09-06T00:23:25.178Z,14.36
2018-09-06T00:25:53.441Z,14.37
2018-09-06T00:28:21.910Z,14.46
2018-09-06T00:30:50.137Z,14.39
2018-09-06T00:33:18.191Z,14.39
2018-09-06T00:35:46.357Z,14.37
2018-09-06T00:38:14.548Z,14.25
2018-09-06T00:40:42.968Z,14.21
2018-09-06T00:43:11.198Z,14.21
2018-09-06T00:45:39.581Z,14.21
2018-09-06T00:48:07.877Z,14.19
2018-09-06T00:50:38.496Z,14.06
2018-09-06T00:53:06.956Z,14.12
2018-09-06T00:55:35.854Z,13.91
2018-09-06T00:58:04.116Z,13.83
2018-09-06T01:00:33.668Z,13.86
2018-09-06T01:03:01.898Z,13.80
2018-09-06T01:05:30.576Z,13.71
2018-09-06T01:07:59.034Z,13.81
2018-09-06T01:10:27.352Z,13.87
2018-09-06T01:12:55.689Z,13.91
2018-09-06T01:15:23.929Z,14.00
2018-09-06T01:17:52.271Z,14.07
2018-09-06T01:20:20.514Z,13.97
2018-09-06T01:22:48.974Z,13.99
2018-09-06T01:25:17.183Z,14.01
2018-09-06T01:27:45.594Z,13.79
2018-09-06T01:30:13.835Z,13.76
2018-09-06T01:32:42.198Z,13.71
2018-09-06T01:35:10.455Z,13.63
2018-09-06T01:37:39.294Z,13.61
2018-09-06T01:40:07.535Z,13.76
2018-09-06T01:42:35.918Z,13.78
2018-09-06T01:45:04.121Z,13.83
2018-09-06T01:47:32.801Z,13.85
2018-09-06T01:50:01.061Z,13.75
2018-09-06T01:52:29.456Z,13.74
2018-09-06T01:54:57.677Z,13.66
2018-09-06T01:57:25.940Z,13.58
2018-09-06T01:59:54.298Z,13.55
2018-09-06T02:02:22.842Z,13.61
2018-09-06T02:04:51.071Z,13.55
2018-09-06T02:07:19.635Z,13.38
2018-09-06T02:09:48.250Z,13.41
2018-09-06T02:12:16.536Z,13.45
2018-09-06T02:14:44.816Z,13.37
2018-09-06T02:17:13.523Z,13.37
2018-09-06T02:19:41.782Z,13.41
2018-09-06T02:22:10.103Z,13.40
2018-09-06T02:24:38.338Z,13.40
2018-09-06T02:27:06.679Z,13.45
2018-09-06T02:29:34.938Z,13.37
2018-09-06T02:32:03.383Z,13.24
2018-09-06T02:34:31.622Z,13.13
2018-09-06T02:36:59.664Z,13.07
2018-09-06T02:39:27.995Z,13.13
2018-09-06T02:41:56.029Z,13.19
2018-09-06T02:44:24.896Z,13.28
2018-09-06T02:46:53.254Z,13.35
2018-09-06T02:49:26.878Z,13.37
2018-09-06T02:51:55.594Z,13.39
2018-09-06T02:54:23.894Z,13.36
2018-09-06T02:56:52.114Z,13.25
2018-09-06T02:59:20.432Z,13.20
2018-09-06T03:01:48.936Z,13.09
2018-09-06T03:04:17.310Z,13.09
2018-09-06T03:06:45.521Z,13.16
2018-09-06T03:09:13.903Z,13.10
2018-09-06T03:11:47.894Z,13.09
2018-09-06T03:14:16.514Z,12.93
2018-09-06T03:16:44.793Z,12.97
2018-09-06T03:19:13.122Z,12.97
2018-09-06T03:21:41.332Z,12.96
2018-09-06T03:24:09.612Z,13.06
2018-09-06T03:26:37.878Z,13.01
2018-09-06T03:29:06.158Z,12.98
2018-09-06T03:31:34.380Z,12.96
2018-09-06T03:34:02.616Z,12.95
2018-09-06T03:36:30.831Z,12.98
2018-09-06T03:38:59.080Z,12.92
2018-09-06T03:41:27.308Z,12.97
2018-09-06T03:43:55.559Z,12.97
2018-09-06T03:46:23.960Z,12.85
2018-09-06T03:48:52.317Z,12.84
2018-09-06T03:51:20.538Z,12.71
2018-09-06T03:53:48.877Z,12.58
2018-09-06T03:56:17.158Z,12.55
2018-09-06T03:58:45.475Z,12.58
2018-09-06T04:01:13.635Z,12.66
2018-09-06T04:03:41.881Z,12.71
2018-09-06T04:06:10.142Z,12.76
2018-09-06T04:08:38.634Z,12.77
2018-09-06T04:11:06.867Z,12.64
2018-09-06T04:13:35.123Z,12.71
2018-09-06T04:16:03.395Z,12.80
2018-09-06T04:18:31.583Z,12.78
2018-09-06T04:20:59.854Z,12.79
2018-09-06T04:23:28.295Z,12.76
2018-09-06T04:25:56.655Z,12.89
2018-09-06T04:28:25.022Z,12.86
2018-09-06T04:30:53.435Z,12.86
2018-09-06T04:33:22.192Z,12.87
2018-09-06T04:35:50.380Z,12.77
2018-09-06T04:38:18.761Z,12.67
2018-09-06T04:40:47.137Z,12.68
2018-09-06T04:43:15.415Z,12.47
2018-09-06T04:45:43.681Z,12.45
2018-09-06T04:48:11.958Z,12.66
2018-09-06T04:50:40.352Z,12.66
2018-09-06T04:53:08.613Z,12.69
2018-09-06T04:55:37.011Z,12.77
2018-09-06T04:58:05.727Z,12.87
2018-09-06T05:00:34.090Z,12.80
2018-09-06T05:03:02.267Z,12.80
2018-09-06T05:05:30.575Z,12.87
2018-09-06T05:07:58.951Z,13.09
2018-09-06T05:10:27.400Z,13.51
2018-09-06T05:12:55.755Z,13.93
2018-09-06T05:15:24.169Z,14.32
2018-09-06T05:17:52.331Z,14.85
2018-09-06T05:20:20.519Z,15.38
2018-09-06T05:22:48.858Z,15.71
2018-09-06T05:25:17.281Z,15.91
2018-09-06T05:27:45.837Z,16.32
2018-09-06T05:30:14.298Z,16.82
2018-09-06T05:32:42.738Z,16.98
2018-09-06T05:35:11.133Z,17.62
2018-09-06T05:37:39.413Z,17.90
2018-09-06T05:40:07.771Z,18.82
2018-09-06T05:42:36.461Z,19.12
2018-09-06T05:45:04.894Z,19.86
2018-09-06T05:47:33.166Z,19.55
2018-09-06T05:50:01.454Z,19.74
2018-09-06T05:52:29.809Z,19.67
2018-09-06T05:54:58.155Z,19.83
2018-09-06T05:57:26.396Z,20.46
2018-09-06T05:59:54.808Z,20.96
2018-09-06T06:02:23.078Z,21.00
2018-09-06T06:04:51.994Z,22.12
2018-09-06T06:07:20.417Z,21.92
2018-09-06T06:09:48.999Z,22.03
2018-09-06T06:12:17.293Z,22.43
2018-09-06T06:14:45.557Z,22.89
2018-09-06T06:17:13.796Z,22.72
2018-09-06T06:19:41.989Z,23.23
2018-09-06T06:22:10.381Z,23.91
2018-09-06T06:24:38.669Z,24.57
2018-09-06T06:27:07.029Z,23.50
2018-09-06T06:29:35.412Z,22.72
2018-09-06T06:32:03.699Z,23.67
2018-09-06T06:34:31.992Z,24.18
2018-09-06T06:37:00.372Z,24.06
2018-09-06T06:39:28.618Z,23.89
2018-09-06T06:41:56.972Z,24.24
2018-09-06T06:44:25.138Z,23.96
2018-09-06T06:46:54.233Z,23.81
2018-09-06T06:49:22.454Z,23.86
2018-09-06T06:51:50.855Z,23.88
2018-09-06T06:54:19.175Z,23.66
2018-09-06T06:56:47.452Z,22.92
2018-09-06T06:59:15.692Z,24.01
2018-09-06T07:01:44.101Z,24.05
2018-09-06T07:04:12.404Z,24.18
2018-09-06T07:06:40.794Z,25.19
2018-09-06T07:09:09.996Z,26.55
2018-09-06T07:11:38.296Z,27.82
2018-09-06T07:14:06.742Z,27.54
2018-09-06T07:16:35.009Z,27.59
2018-09-06T07:19:03.259Z,28.64
2018-09-06T07:21:31.670Z,30.35
2018-09-06T07:24:00.006Z,30.44
2018-09-06T07:26:28.383Z,30.43
2018-09-06T07:28:57.146Z,28.04
2018-09-06T07:31:25.604Z,26.95
2018-09-06T07:33:53.861Z,25.49
2018-09-06T07:36:22.426Z,24.81
2018-09-06T07:38:50.717Z,24.00
2018-09-06T07:41:19.113Z,23.73
2018-09-06T07:43:47.419Z,23.06
2018-09-06T07:46:15.738Z,23.58
2018-09-06T07:48:44.072Z,23.34
2018-09-06T07:51:12.416Z,23.98
2018-09-06T07:53:40.609Z,23.51
2018-09-06T07:56:09.069Z,23.02
2018-09-06T07:58:37.388Z,22.43
2018-09-06T08:01:05.949Z,22.17
2018-09-06T08:03:34.311Z,21.80
2018-09-06T08:06:02.625Z,21.77
2018-09-06T08:08:31.073Z,22.33
2018-09-06T08:10:59.875Z,22.72
2018-09-06T08:13:28.311Z,23.12
2018-09-06T08:15:56.655Z,22.72
2018-09-06T08:18:24.997Z,22.99
2018-09-06T08:20:53.410Z,22.59
2018-09-06T08:23:21.797Z,22.56
2018-09-06T08:25:50.036Z,23.29
2018-09-06T08:28:18.357Z,24.78
2018-09-06T08:30:47.066Z,24.76
2018-09-06T08:33:15.402Z,25.09
2018-09-06T08:35:43.733Z,25.37
2018-09-06T08:38:12.135Z,24.79
2018-09-06T08:40:40.418Z,24.04
2018-09-06T08:43:08.771Z,24.59
2018-09-06T08:45:37.302Z,24.80
2018-09-06T08:48:05.757Z,25.61
2018-09-06T08:50:33.978Z,26.51
2018-09-06T08:53:02.397Z,27.25
2018-09-06T08:55:30.678Z,27.86
2018-09-06T08:57:58.929Z,28.17
2018-09-06T09:00:27.190Z,27.63
2018-09-06T09:02:55.707Z,26.58
2018-09-06T09:05:23.958Z,26.52
2018-09-06T09:07:52.417Z,25.95
2018-09-06T09:10:20.829Z,26.26
2018-09-06T09:12:49.118Z,26.44
2018-09-06T09:15:17.351Z,26.37
2018-09-06T09:17:45.805Z,26.38
2018-09-06T09:20:14.236Z,26.61
2018-09-06T09:22:42.508Z,26.58
2018-09-06T09:25:10.839Z,26.14
2018-09-06T09:27:39.480Z,25.80
2018-09-06T09:30:09.040Z,25.77
2018-09-06T09:32:37.479Z,25.93
2018-09-06T09:35:05.796Z,25.84
2018-09-06T09:37:34.267Z,26.32
2018-09-06T09:40:02.881Z,26.17
2018-09-06T09:42:31.399Z,26.47
2018-09-06T09:44:59.772Z,26.18
2018-09-06T09:49:55.711Z,26.33
2018-09-06T09:52:23.983Z,26.22
2018-09-06T09:54:52.291Z,25.61
2018-09-06T09:57:20.592Z,24.88
2018-09-06T09:59:48.949Z,25.13
2018-09-06T10:02:22.677Z,25.27
2018-09-06T10:04:55.079Z,25.83
2018-09-06T10:07:28.818Z,25.21
2018-09-06T10:09:57.178Z,24.97
2018-09-06T10:12:25.647Z,25.20
2018-09-06T10:14:54.049Z,24.75
2018-09-06T10:17:22.333Z,24.85
2018-09-06T10:19:50.760Z,24.83
2018-09-06T10:22:19.100Z,24.97
2018-09-06T10:24:47.431Z,25.19
2018-09-06T10:27:16.450Z,25.16
2018-09-06T10:29:44.934Z,25.07
2018-09-06T10:32:13.215Z,25.05
2018-09-06T10:34:41.636Z,24.80
2018-09-06T10:37:10.009Z,24.70
2018-09-06T10:39:38.389Z,24.36
2018-09-06T10:42:06.826Z,24.67
2018-09-06T10:44:35.156Z,24.53
2018-09-06T10:47:03.541Z,24.61
2018-09-06T10:49:32.122Z,24.16
2018-09-06T10:52:00.483Z,23.23
2018-09-06T10:54:28.843Z,23.39
2018-09-06T10:56:57.147Z,23.53
2018-09-06T10:59:25.569Z,23.36
2018-09-06T11:01:53.680Z,23.10
2018-09-06T11:04:22.092Z,22.75
2018-09-06T11:06:50.412Z,22.81
2018-09-06T11:09:20.050Z,22.70
2018-09-06T11:11:48.229Z,22.79
2018-09-06T11:14:16.402Z,22.74
2018-09-06T11:16:44.749Z,22.47
2018-09-06T11:19:13.222Z,22.07
2018-09-06T11:21:41.673Z,21.81
2018-09-06T11:24:09.767Z,21.48
2018-09-06T11:26:38.058Z,21.39
2018-09-06T11:29:06.170Z,21.32
2018-09-06T11:31:34.452Z,21.15
2018-09-06T11:34:02.769Z,20.79
2018-09-06T11:36:33.884Z,20.17
2018-09-06T11:39:02.094Z,19.85
2018-09-06T11:41:30.398Z,19.63
2018-09-06T11:43:58.640Z,19.57
2018-09-06T11:46:26.954Z,19.72
2018-09-06T11:48:55.171Z,20.07
2018-09-06T11:51:23.762Z,20.36
2018-09-06T11:53:52.034Z,20.72
2018-09-06T11:56:20.283Z,21.17
2018-09-06T11:58:48.609Z,21.50
2018-09-06T12:01:16.941Z,21.49
2018-09-06T12:03:45.241Z,21.73
2018-09-06T12:06:13.410Z,22.15
2018-09-06T12:08:41.657Z,22.22
2018-09-06T12:11:09.896Z,22.86
2018-09-06T12:13:38.147Z,23.04
2018-09-06T12:16:07.674Z,23.34
2018-09-06T12:18:35.866Z,23.32
2018-09-06T12:21:04.167Z,23.41
2018-09-06T12:23:32.466Z,23.48
2018-09-06T12:26:00.691Z,23.55
2018-09-06T12:28:28.890Z,23.72
2018-09-06T12:30:57.344Z,23.80
2018-09-06T12:33:26.084Z,23.59
2018-09-06T12:35:54.476Z,23.55
2018-09-06T12:38:22.676Z,23.28
2018-09-06T12:54:24.351Z,22.48
2018-09-06T12:56:53.265Z,22.43
2018-09-06T12:59:21.931Z,22.17
2018-09-06T13:01:50.354Z,22.05
2018-09-06T13:04:18.773Z,21.83
2018-09-06T13:06:47.140Z,21.82
2018-09-06T13:09:15.512Z,21.87
2018-09-06T13:11:43.965Z,21.84
2018-09-06T13:14:12.805Z,21.86
2018-09-06T13:16:41.340Z,21.66
2018-09-06T13:19:09.720Z,21.57
2018-09-06T13:21:38.163Z,21.38
2018-09-06T13:24:06.595Z,21.27
2018-09-06T13:26:35.378Z,21.22
2018-09-06T13:29:03.753Z,21.14
2018-09-06T13:31:32.155Z,20.88
2018-09-06T13:34:00.535Z,20.69
2018-09-06T13:36:29.815Z,20.49
2018-09-06T13:38:57.995Z,20.36
2018-09-06T13:41:26.215Z,20.40
2018-09-06T13:43:54.635Z,20.30
2018-09-06T13:46:22.935Z,20.29
2018-09-06T13:48:51.075Z,20.12
2018-09-06T13:51:19.392Z,20.20
2018-09-06T13:53:47.604Z,20.36
2018-09-06T13:56:15.914Z,20.49
2018-09-06T13:58:44.223Z,20.56
2018-09-06T14:01:12.430Z,20.54
2018-09-06T14:03:41.033Z,20.74
2018-09-06T14:06:09.452Z,20.78
2018-09-06T14:08:38.152Z,20.79
2018-09-06T14:11:06.733Z,20.64
2018-09-06T14:13:35.396Z,20.58
2018-09-06T14:16:03.632Z,20.56
2018-09-06T14:18:32.816Z,20.62
2018-09-06T14:21:01.196Z,20.68
2018-09-06T14:23:29.485Z,20.68
2018-09-06T14:25:57.724Z,20.60
2018-09-06T14:28:25.950Z,20.60
2018-09-06T14:30:54.159Z,20.62
2018-09-06T14:33:22.374Z,20.68
2018-09-06T14:35:50.592Z,20.78
2018-09-06T14:38:18.878Z,20.75
2018-09-06T14:40:46.973Z,20.65
2018-09-06T14:43:15.312Z,20.70
2018-09-06T14:45:43.510Z,20.81
2018-09-06T14:48:11.770Z,21.06
2018-09-06T14:50:39.960Z,21.17
2018-09-06T14:53:08.474Z,21.31
2018-09-06T14:55:36.750Z,21.57
2018-09-06T14:58:05.090Z,21.75
2018-09-06T15:00:34.381Z,21.77
2018-09-06T15:03:02.712Z,22.04
2018-09-06T15:05:30.912Z,22.30
2018-09-06T15:07:59.267Z,22.54
2018-09-06T15:10:27.496Z,22.63
2018-09-06T15:12:55.707Z,22.69
2018-09-06T15:15:23.934Z,22.57
2018-09-06T15:17:52.275Z,22.63
2018-09-06T15:20:21.056Z,22.80
2018-09-06T15:22:49.267Z,22.98
2018-09-06T15:25:17.475Z,22.97
2018-09-06T15:27:45.809Z,23.11
2018-09-06T15:30:14.156Z,23.04
2018-09-06T15:32:42.356Z,23.14
2018-09-06T15:35:10.654Z,23.12
2018-09-06T15:37:38.975Z,23.43
2018-09-06T15:40:07.396Z,23.23
2018-09-06T15:42:39.635Z,23.14
2018-09-06T15:45:07.875Z,23.40
2018-09-06T15:47:37.015Z,23.30
2018-09-06T15:50:05.225Z,23.53
2018-09-06T15:52:33.544Z,23.50
2018-09-06T15:55:01.707Z,23.19
2018-09-06T15:57:29.836Z,23.15
2018-09-06T15:59:58.085Z,23.04
2018-09-06T16:02:26.384Z,22.93
2018-09-06T16:04:54.784Z,22.71
2018-09-06T16:07:23.436Z,22.43
2018-09-06T16:09:51.696Z,22.19
2018-09-06T16:12:19.902Z,22.11
2018-09-06T16:14:48.084Z,22.06
2018-09-06T16:17:16.357Z,21.97
2018-09-06T16:19:44.564Z,21.90
2018-09-06T16:22:12.708Z,21.91
2018-09-06T16:24:41.065Z,21.88
2018-09-06T16:27:09.256Z,21.84
2018-09-06T16:29:37.797Z,21.67
2018-09-06T16:32:06.185Z,21.63
2018-09-06T16:34:34.477Z,21.48
2018-09-06T16:37:02.698Z,21.42
2018-09-06T16:39:31.081Z,21.39
2018-09-06T16:41:59.284Z,21.29
2018-09-06T16:44:27.536Z,21.25
2018-09-06T16:47:02.284Z,21.19
2018-09-06T16:49:30.608Z,21.06
2018-09-06T16:51:59.172Z,21.13
2018-09-06T16:54:28.344Z,21.00
2018-09-06T16:56:59.444Z,20.97
2018-09-06T16:59:30.145Z,20.92
2018-09-06T17:01:58.757Z,20.88
2018-09-06T17:04:28.344Z,20.81
2018-09-06T17:06:58.155Z,20.77
2018-09-06T17:09:30.784Z,20.75
2018-09-06T17:12:00.304Z,20.80
2018-09-06T17:14:29.173Z,20.69
2018-09-06T17:16:57.664Z,20.60
2018-09-06T17:19:26.284Z,20.56
2018-09-06T17:21:54.846Z,20.61
2018-09-06T17:24:23.730Z,20.58
2018-09-06T17:26:52.509Z,20.54
2018-09-06T17:29:22.959Z,20.49
2018-09-06T17:31:55.041Z,20.54
2018-09-06T17:34:26.324Z,20.44
2018-09-06T17:36:55.831Z,20.44
2018-09-06T17:39:26.110Z,20.42
2018-09-06T17:41:54.816Z,20.37
2018-09-06T17:44:23.292Z,20.32
2018-09-06T17:46:56.645Z,20.30
2018-09-06T17:49:25.271Z,20.12
2018-09-06T17:51:53.879Z,20.03
2018-09-06T17:54:23.292Z,19.98
2018-09-06T17:56:51.723Z,19.99
2018-09-06T17:59:20.190Z,19.87
2018-09-06T18:01:48.730Z,19.77
2018-09-06T18:04:17.108Z,19.70
2018-09-06T18:06:45.634Z,19.62
2018-09-06T18:09:14.622Z,19.63
2018-09-06T18:11:45.830Z,19.67
2018-09-06T18:14:14.290Z,19.72
2018-09-06T18:16:42.902Z,19.76
2018-09-06T18:19:11.113Z,19.83
2018-09-06T18:21:40.244Z,19.84
2018-09-06T18:24:08.695Z,19.81
2018-09-06T18:26:37.262Z,19.60
2018-09-06T18:29:05.743Z,19.35
2018-09-06T18:31:34.652Z,19.15
2018-09-06T18:34:03.017Z,19.02
2018-09-06T18:36:31.632Z,19.02
2018-09-06T18:39:00.055Z,19.10
2018-09-06T18:41:30.591Z,19.30
2018-09-06T18:44:03.411Z,19.32
2018-09-06T18:46:32.153Z,19.27
2018-09-06T18:49:00.473Z,19.37
2018-09-06T18:51:29.411Z,19.44
2018-09-06T18:53:57.852Z,19.38
2018-09-06T18:56:27.252Z,19.50
2018-09-06T18:58:55.610Z,19.48
2018-09-06T19:01:24.150Z,19.45
2018-09-06T19:03:52.751Z,19.36
2018-09-06T19:06:21.532Z,19.26
2018-09-06T19:08:50.992Z,19.23
2018-09-06T19:11:20.550Z,19.23
2018-09-06T19:13:51.190Z,19.19
2018-09-06T19:16:19.476Z,19.24
2018-09-06T19:18:47.886Z,19.22
2018-09-06T19:21:16.832Z,19.18
2018-09-06T19:23:45.392Z,19.13
2018-09-06T19:26:14.132Z,19.06
2018-09-06T19:28:42.870Z,18.96
2018-09-06T19:31:11.253Z,18.95
2018-09-06T19:33:39.872Z,18.90
2018-09-06T19:36:08.712Z,18.78
2018-09-06T19:38:37.214Z,18.76
2018-09-06T19:41:05.991Z,18.76
2018-09-06T19:43:35.292Z,18.77
2018-09-06T19:46:11.115Z,18.59
2018-09-06T19:48:39.604Z,18.41
2018-09-06T19:51:07.864Z,18.29
2018-09-06T19:53:36.390Z,18.25
2018-09-06T19:56:06.264Z,18.24
2018-09-06T19:58:37.535Z,18.14
2018-09-06T20:01:06.269Z,18.08
2018-09-06T20:03:34.863Z,18.11
2018-09-06T20:06:03.495Z,18.13
2018-09-06T20:08:32.061Z,18.16
2018-09-06T20:11:01.210Z,18.17
2018-09-06T20:13:33.951Z,18.15
2018-09-06T20:16:03.316Z,18.07
2018-09-06T20:18:37.995Z,18.13
2018-09-06T20:21:06.584Z,18.10
2018-09-06T20:23:35.172Z,18.05
2018-09-06T20:26:03.626Z,18.12
2018-09-06T20:28:31.924Z,18.06
2018-09-06T20:31:06.512Z,18.17
2018-09-06T20:33:35.162Z,18.17
2018-09-06T20:36:07.435Z,18.12
2018-09-06T20:38:36.249Z,18.11
2018-09-06T20:41:04.596Z,18.12
2018-09-06T20:43:34.382Z,18.06
2018-09-06T20:46:03.129Z,18.05
2018-09-06T20:48:31.636Z,18.00
2018-09-06T20:51:01.919Z,18.01
2018-09-06T20:53:30.530Z,18.02
2018-09-06T20:56:09.737Z,18.05
2018-09-06T20:58:38.249Z,18.01
2018-09-06T21:01:06.655Z,17.99
2018-09-06T21:03:40.621Z,18.05
2018-09-06T21:06:08.913Z,17.97
2018-09-06T21:08:37.228Z,17.95
2018-09-06T21:11:05.498Z,17.95
2018-09-06T21:13:34.389Z,18.00
2018-09-06T21:16:02.770Z,17.97
2018-09-06T21:18:31.090Z,18.04
2018-09-06T21:20:59.290Z,18.02
2018-09-06T21:23:27.498Z,17.91
2018-09-06T21:25:56.590Z,17.99
2018-09-06T21:28:25.030Z,18.01
2018-09-06T21:30:53.394Z,17.91
2018-09-06T21:33:21.630Z,17.92
2018-09-06T21:35:50.733Z,17.91
2018-09-06T21:38:18.870Z,17.81
2018-09-06T21:40:47.250Z,17.80
2018-09-06T21:43:16.790Z,17.89
2018-09-06T21:45:44.970Z,17.86
2018-09-06T21:48:13.210Z,17.89
2018-09-06T21:50:41.430Z,17.95
2018-09-06T21:53:09.730Z,18.00
2018-09-06T21:55:38.090Z,18.02
2018-09-06T21:58:06.370Z,18.02
2018-09-06T22:00:34.892Z,18.08
2018-09-06T22:03:08.490Z,18.14
2018-09-06T22:05:37.330Z,18.09
2018-09-06T22:08:06.655Z,18.05
2018-09-06T22:10:35.194Z,18.04
2018-09-06T22:13:03.670Z,18.09
2018-09-06T22:15:32.339Z,18.07
2018-09-06T22:18:00.933Z,18.01
2018-09-06T22:20:29.451Z,18.02
2018-09-06T22:22:57.950Z,17.96
2018-09-06T22:25:26.060Z,17.98
2018-09-06T22:27:54.266Z,18.05
2018-09-06T22:30:22.554Z,18.05
2018-09-06T22:32:50.923Z,17.93
2018-09-06T22:35:19.189Z,17.94
2018-09-06T22:37:47.194Z,17.85
2018-09-06T22:40:15.454Z,17.87
2018-09-06T22:42:43.584Z,17.88
2018-09-06T22:45:11.875Z,17.78
2018-09-06T22:47:40.183Z,17.84
2018-09-06T22:50:08.899Z,17.80
2018-09-06T22:52:37.455Z,17.82
2018-09-06T22:55:05.715Z,17.84
2018-09-06T22:57:34.460Z,17.69
2018-09-06T23:00:04.474Z,17.71
2018-09-06T23:02:38.115Z,17.73
2018-09-06T23:05:06.367Z,17.74
2018-09-06T23:07:34.754Z,17.69
2018-09-06T23:10:04.457Z,17.80
2018-09-06T23:12:32.794Z,17.81
2018-09-06T23:15:00.915Z,17.84
2018-09-06T23:17:29.155Z,17.87
2018-09-06T23:19:57.515Z,17.89
2018-09-06T23:22:25.894Z,17.88
2018-09-06T23:24:54.459Z,17.80
2018-09-06T23:27:26.075Z,17.81
2018-09-06T23:29:57.069Z,17.80
2018-09-06T23:32:25.316Z,17.66
2018-09-06T23:34:53.331Z,17.59
2018-09-06T23:37:21.493Z,17.47
2018-09-06T23:39:49.722Z,17.42
2018-09-06T23:42:17.700Z,17.40
2018-09-06T23:44:45.985Z,17.43
2018-09-06T23:47:14.062Z,17.37
2018-09-06T23:49:42.111Z,17.25
2018-09-06T23:52:10.106Z,17.22
2018-09-06T23:54:38.230Z,17.21
2018-09-06T23:57:06.512Z,17.18
2018-09-06T23:59:34.851Z,17.21
